sensor_id;sensor_type;location;lat;lon;timestamp;P1;durP1;ratioP1;P2;durP2;ratioP2
22260;SDS011;11299;43.202;27.920;2022-07-29T00:00:12;14.40;;;6.63;;
22260;SDS011;11299;43.202;27.920;2022-07-29T00:02:38;8.43;;;6.13;;
22260;SDS011;11299;43.202;27.920;2022-07-29T00:05:04;9.90;;;6.35;;
22260;SDS011;11299;43.202;27.920;2022-07-29T00:07:30;11.98;;;6.57;;
22260;SDS011;11299;43.202;27.920;2022-07-29T00:09:56;14.23;;;6.38;;
22260;SDS011;11299;43.202;27.920;2022-07-29T00:12:22;16.40;;;6.40;;
22260;SDS011;11299;43.202;27.920;2022-07-29T00:14:49;11.25;;;6.63;;
22260;SDS011;11299;43.202;27.920;2022-07-29T00:17:15;6.88;;;5.43;;
22260;SDS011;11299;43.202;27.920;2022-07-29T00:19:40;12.20;;;7.03;;
22260;SDS011;11299;43.202;27.920;2022-07-29T00:22:06;11.13;;;5.90;;
22260;SDS011;11299;43.202;27.920;2022-07-29T00:24:31;9.90;;;6.22;;
22260;SDS011;11299;43.202;27.920;2022-07-29T00:26:57;10.77;;;6.15;;
22260;SDS011;11299;43.202;27.920;2022-07-29T00:29:22;13.13;;;6.50;;
22260;SDS011;11299;43.202;27.920;2022-07-29T00:31:48;13.32;;;7.57;;
22260;SDS011;11299;43.202;27.920;2022-07-29T00:34:13;14.48;;;6.88;;
22260;SDS011;11299;43.202;27.920;2022-07-29T00:36:57;12.68;;;7.35;;
22260;SDS011;11299;43.202;27.920;2022-07-29T00:39:23;17.10;;;7.53;;
22260;SDS011;11299;43.202;27.920;2022-07-29T00:41:48;17.63;;;7.70;;
22260;SDS011;11299;43.202;27.920;2022-07-29T00:44:14;15.35;;;9.80;;
22260;SDS011;11299;43.202;27.920;2022-07-29T00:46:40;18.25;;;9.95;;
22260;SDS011;11299;43.202;27.920;2022-07-29T00:49:06;23.08;;;11.82;;
22260;SDS011;11299;43.202;27.920;2022-07-29T00:51:32;18.83;;;10.95;;
22260;SDS011;11299;43.202;27.920;2022-07-29T00:54:03;16.42;;;10.32;;
22260;SDS011;11299;43.202;27.920;2022-07-29T00:56:29;15.77;;;10.73;;
22260;SDS011;11299;43.202;27.920;2022-07-29T00:58:56;17.60;;;11.13;;
22260;SDS011;11299;43.202;27.920;2022-07-29T01:01:22;22.25;;;11.10;;
22260;SDS011;11299;43.202;27.920;2022-07-29T01:03:48;19.08;;;11.65;;
22260;SDS011;11299;43.202;27.920;2022-07-29T01:06:14;20.75;;;11.80;;
22260;SDS011;11299;43.202;27.920;2022-07-29T01:08:41;19.60;;;10.65;;
22260;SDS011;11299;43.202;27.920;2022-07-29T01:11:07;20.25;;;10.75;;
22260;SDS011;11299;43.202;27.920;2022-07-29T01:13:33;18.80;;;11.00;;
22260;SDS011;11299;43.202;27.920;2022-07-29T01:16:02;18.65;;;11.15;;
22260;SDS011;11299;43.202;27.920;2022-07-29T01:18:38;17.13;;;11.10;;
22260;SDS011;11299;43.202;27.920;2022-07-29T01:34:23;22.60;;;13.50;;
22260;SDS011;11299;43.202;27.920;2022-07-29T01:36:59;22.55;;;13.70;;
22260;SDS011;11299;43.202;27.920;2022-07-29T01:39:47;19.63;;;13.25;;
22260;SDS011;11299;43.202;27.920;2022-07-29T01:44:59;22.67;;;12.93;;
22260;SDS011;11299;43.202;27.920;2022-07-29T01:47:39;21.85;;;13.13;;
22260;SDS011;11299;43.202;27.920;2022-07-29T01:50:08;22.83;;;14.20;;
22260;SDS011;11299;43.202;27.920;2022-07-29T01:52:39;21.30;;;13.80;;
22260;SDS011;11299;43.202;27.920;2022-07-29T01:55:22;21.13;;;14.40;;
22260;SDS011;11299;43.202;27.920;2022-07-29T01:57:53;27.58;;;16.48;;
22260;SDS011;11299;43.202;27.920;2022-07-29T02:00:21;26.75;;;15.48;;
22260;SDS011;11299;43.202;27.920;2022-07-29T02:02:47;30.55;;;17.60;;
22260;SDS011;11299;43.202;27.920;2022-07-29T02:05:15;27.25;;;17.17;;
22260;SDS011;11299;43.202;27.920;2022-07-29T02:07:44;30.80;;;17.95;;
22260;SDS011;11299;43.202;27.920;2022-07-29T02:10:13;29.92;;;18.13;;
22260;SDS011;11299;43.202;27.920;2022-07-29T02:12:42;37.85;;;19.13;;
22260;SDS011;11299;43.202;27.920;2022-07-29T02:15:10;37.22;;;20.63;;
22260;SDS011;11299;43.202;27.920;2022-07-29T02:17:44;34.10;;;19.10;;
22260;SDS011;11299;43.202;27.920;2022-07-29T02:20:16;36.20;;;19.73;;
22260;SDS011;11299;43.202;27.920;2022-07-29T02:22:42;37.17;;;20.48;;
22260;SDS011;11299;43.202;27.920;2022-07-29T02:25:10;47.17;;;20.83;;
22260;SDS011;11299;43.202;27.920;2022-07-29T02:27:37;43.85;;;22.65;;
22260;SDS011;11299;43.202;27.920;2022-07-29T02:30:06;37.13;;;24.10;;
22260;SDS011;11299;43.202;27.920;2022-07-29T02:32:34;39.08;;;24.90;;
22260;SDS011;11299;43.202;27.920;2022-07-29T02:35:02;37.20;;;25.08;;
22260;SDS011;11299;43.202;27.920;2022-07-29T02:37:28;41.90;;;23.73;;
22260;SDS011;11299;43.202;27.920;2022-07-29T02:39:55;39.67;;;23.23;;
22260;SDS011;11299;43.202;27.920;2022-07-29T02:42:23;47.08;;;24.45;;
22260;SDS011;11299;43.202;27.920;2022-07-29T02:44:51;32.75;;;21.85;;
22260;SDS011;11299;43.202;27.920;2022-07-29T02:50:14;38.78;;;20.27;;
22260;SDS011;11299;43.202;27.920;2022-07-29T02:52:59;36.80;;;22.13;;
22260;SDS011;11299;43.202;27.920;2022-07-29T02:55:32;34.58;;;21.30;;
22260;SDS011;11299;43.202;27.920;2022-07-29T02:58:03;43.00;;;22.30;;
22260;SDS011;11299;43.202;27.920;2022-07-29T03:00:36;36.38;;;21.77;;
22260;SDS011;11299;43.202;27.920;2022-07-29T03:03:06;45.08;;;20.88;;
22260;SDS011;11299;43.202;27.920;2022-07-29T03:05:34;37.47;;;21.00;;
22260;SDS011;11299;43.202;27.920;2022-07-29T03:08:01;34.08;;;19.80;;
22260;SDS011;11299;43.202;27.920;2022-07-29T03:10:29;33.53;;;19.55;;
22260;SDS011;11299;43.202;27.920;2022-07-29T03:12:56;39.83;;;18.90;;
22260;SDS011;11299;43.202;27.920;2022-07-29T03:15:23;32.75;;;19.15;;
22260;SDS011;11299;43.202;27.920;2022-07-29T03:17:50;40.38;;;19.80;;
22260;SDS011;11299;43.202;27.920;2022-07-29T03:20:16;29.60;;;18.73;;
22260;SDS011;11299;43.202;27.920;2022-07-29T03:22:42;36.45;;;19.17;;
22260;SDS011;11299;43.202;27.920;2022-07-29T03:25:15;34.60;;;18.77;;
22260;SDS011;11299;43.202;27.920;2022-07-29T03:27:45;39.92;;;19.20;;
22260;SDS011;11299;43.202;27.920;2022-07-29T03:30:12;32.88;;;18.75;;
22260;SDS011;11299;43.202;27.920;2022-07-29T03:32:38;33.65;;;19.48;;
22260;SDS011;11299;43.202;27.920;2022-07-29T03:35:05;40.15;;;20.00;;
22260;SDS011;11299;43.202;27.920;2022-07-29T03:37:31;26.55;;;17.17;;
22260;SDS011;11299;43.202;27.920;2022-07-29T03:39:58;35.35;;;17.33;;
22260;SDS011;11299;43.202;27.920;2022-07-29T03:42:32;33.63;;;17.35;;
22260;SDS011;11299;43.202;27.920;2022-07-29T03:45:03;25.42;;;16.75;;
22260;SDS011;11299;43.202;27.920;2022-07-29T03:47:32;32.30;;;17.02;;
22260;SDS011;11299;43.202;27.920;2022-07-29T03:50:02;25.73;;;15.48;;
22260;SDS011;11299;43.202;27.920;2022-07-29T03:52:31;22.98;;;15.20;;
22260;SDS011;11299;43.202;27.920;2022-07-29T03:54:57;30.45;;;16.02;;
22260;SDS011;11299;43.202;27.920;2022-07-29T03:57:27;25.73;;;14.43;;
22260;SDS011;11299;43.202;27.920;2022-07-29T03:59:53;28.05;;;13.98;;
22260;SDS011;11299;43.202;27.920;2022-07-29T04:02:20;27.38;;;15.23;;
22260;SDS011;11299;43.202;27.920;2022-07-29T04:04:46;26.77;;;15.32;;
22260;SDS011;11299;43.202;27.920;2022-07-29T04:07:12;25.05;;;15.32;;
22260;SDS011;11299;43.202;27.920;2022-07-29T04:09:39;32.42;;;15.30;;
22260;SDS011;11299;43.202;27.920;2022-07-29T04:12:04;28.60;;;15.07;;
22260;SDS011;11299;43.202;27.920;2022-07-29T04:14:30;28.33;;;14.95;;
22260;SDS011;11299;43.202;27.920;2022-07-29T04:16:57;35.53;;;15.13;;
22260;SDS011;11299;43.202;27.920;2022-07-29T04:19:23;29.77;;;13.38;;
22260;SDS011;11299;43.202;27.920;2022-07-29T04:21:49;27.67;;;13.50;;
22260;SDS011;11299;43.202;27.920;2022-07-29T04:24:14;26.00;;;12.73;;
22260;SDS011;11299;43.202;27.920;2022-07-29T04:26:40;21.08;;;12.88;;
22260;SDS011;11299;43.202;27.920;2022-07-29T04:29:06;21.63;;;12.30;;
22260;SDS011;11299;43.202;27.920;2022-07-29T04:31:32;18.88;;;12.02;;
22260;SDS011;11299;43.202;27.920;2022-07-29T04:33:57;26.55;;;11.93;;
22260;SDS011;11299;43.202;27.920;2022-07-29T04:36:23;22.30;;;11.90;;
22260;SDS011;11299;43.202;27.920;2022-07-29T04:38:48;17.60;;;11.95;;
22260;SDS011;11299;43.202;27.920;2022-07-29T04:41:14;17.23;;;10.30;;
22260;SDS011;11299;43.202;27.920;2022-07-29T04:43:39;17.92;;;11.30;;
22260;SDS011;11299;43.202;27.920;2022-07-29T04:46:05;13.23;;;9.88;;
22260;SDS011;11299;43.202;27.920;2022-07-29T04:48:32;13.73;;;10.20;;
22260;SDS011;11299;43.202;27.920;2022-07-29T04:50:59;16.70;;;9.65;;
22260;SDS011;11299;43.202;27.920;2022-07-29T04:53:24;17.80;;;10.77;;
22260;SDS011;11299;43.202;27.920;2022-07-29T04:55:50;19.45;;;10.30;;
22260;SDS011;11299;43.202;27.920;2022-07-29T04:58:16;16.02;;;10.75;;
22260;SDS011;11299;43.202;27.920;2022-07-29T05:00:42;17.13;;;10.55;;
22260;SDS011;11299;43.202;27.920;2022-07-29T05:03:08;18.15;;;10.48;;
22260;SDS011;11299;43.202;27.920;2022-07-29T05:05:33;15.50;;;9.45;;
22260;SDS011;11299;43.202;27.920;2022-07-29T05:07:59;16.20;;;9.52;;
22260;SDS011;11299;43.202;27.920;2022-07-29T05:10:24;17.35;;;9.35;;
22260;SDS011;11299;43.202;27.920;2022-07-29T05:12:50;13.38;;;8.85;;
22260;SDS011;11299;43.202;27.920;2022-07-29T05:15:16;15.68;;;9.45;;
22260;SDS011;11299;43.202;27.920;2022-07-29T05:17:43;12.25;;;8.85;;
22260;SDS011;11299;43.202;27.920;2022-07-29T05:20:09;17.92;;;8.95;;
22260;SDS011;11299;43.202;27.920;2022-07-29T05:22:35;10.93;;;8.07;;
22260;SDS011;11299;43.202;27.920;2022-07-29T05:25:04;13.98;;;7.80;;
22260;SDS011;11299;43.202;27.920;2022-07-29T05:27:30;11.43;;;7.80;;
22260;SDS011;11299;43.202;27.920;2022-07-29T05:29:56;11.73;;;7.70;;
22260;SDS011;11299;43.202;27.920;2022-07-29T05:32:22;12.85;;;7.22;;
22260;SDS011;11299;43.202;27.920;2022-07-29T05:34:48;11.82;;;7.72;;
22260;SDS011;11299;43.202;27.920;2022-07-29T05:37:13;16.30;;;8.07;;
22260;SDS011;11299;43.202;27.920;2022-07-29T05:39:39;13.00;;;7.50;;
22260;SDS011;11299;43.202;27.920;2022-07-29T05:42:08;12.50;;;7.53;;
22260;SDS011;11299;43.202;27.920;2022-07-29T05:44:38;16.80;;;8.02;;
22260;SDS011;11299;43.202;27.920;2022-07-29T05:47:04;19.08;;;9.57;;
22260;SDS011;11299;43.202;27.920;2022-07-29T05:49:31;23.90;;;10.52;;
22260;SDS011;11299;43.202;27.920;2022-07-29T05:51:57;31.38;;;14.05;;
22260;SDS011;11299;43.202;27.920;2022-07-29T05:54:23;19.33;;;8.80;;
22260;SDS011;11299;43.202;27.920;2022-07-29T05:56:49;8.75;;;6.68;;
22260;SDS011;11299;43.202;27.920;2022-07-29T05:59:14;10.52;;;7.05;;
22260;SDS011;11299;43.202;27.920;2022-07-29T06:01:40;13.55;;;6.70;;
22260;SDS011;11299;43.202;27.920;2022-07-29T06:04:06;11.65;;;6.50;;
22260;SDS011;11299;43.202;27.920;2022-07-29T06:06:32;9.10;;;6.93;;
22260;SDS011;11299;43.202;27.920;2022-07-29T06:08:59;8.50;;;5.93;;
22260;SDS011;11299;43.202;27.920;2022-07-29T06:11:26;10.38;;;5.53;;
22260;SDS011;11299;43.202;27.920;2022-07-29T06:13:52;8.85;;;5.88;;
22260;SDS011;11299;43.202;27.920;2022-07-29T06:16:18;8.63;;;5.78;;
22260;SDS011;11299;43.202;27.920;2022-07-29T06:18:43;13.02;;;5.70;;
22260;SDS011;11299;43.202;27.920;2022-07-29T06:21:09;11.75;;;5.30;;
22260;SDS011;11299;43.202;27.920;2022-07-29T06:23:38;13.75;;;5.70;;
22260;SDS011;11299;43.202;27.920;2022-07-29T06:26:04;12.60;;;6.07;;
22260;SDS011;11299;43.202;27.920;2022-07-29T06:28:30;6.50;;;4.63;;
22260;SDS011;11299;43.202;27.920;2022-07-29T06:30:56;7.15;;;4.10;;
22260;SDS011;11299;43.202;27.920;2022-07-29T06:33:22;8.63;;;4.57;;
22260;SDS011;11299;43.202;27.920;2022-07-29T06:35:47;8.40;;;3.78;;
22260;SDS011;11299;43.202;27.920;2022-07-29T06:38:14;6.28;;;4.25;;
22260;SDS011;11299;43.202;27.920;2022-07-29T06:40:43;7.88;;;4.80;;
22260;SDS011;11299;43.202;27.920;2022-07-29T06:43:29;8.20;;;4.47;;
22260;SDS011;11299;43.202;27.920;2022-07-29T06:46:03;10.52;;;4.78;;
22260;SDS011;11299;43.202;27.920;2022-07-29T06:48:31;23.58;;;6.35;;
22260;SDS011;11299;43.202;27.920;2022-07-29T06:50:59;10.07;;;4.82;;
22260;SDS011;11299;43.202;27.920;2022-07-29T06:53:27;23.60;;;6.50;;
22260;SDS011;11299;43.202;27.920;2022-07-29T06:55:54;29.95;;;8.70;;
22260;SDS011;11299;43.202;27.920;2022-07-29T06:58:19;27.70;;;9.63;;
22260;SDS011;11299;43.202;27.920;2022-07-29T07:00:48;26.52;;;7.95;;
22260;SDS011;11299;43.202;27.920;2022-07-29T07:03:15;18.60;;;7.10;;
22260;SDS011;11299;43.202;27.920;2022-07-29T07:05:41;18.83;;;6.38;;
22260;SDS011;11299;43.202;27.920;2022-07-29T07:08:07;15.40;;;5.13;;
22260;SDS011;11299;43.202;27.920;2022-07-29T07:10:33;10.93;;;4.28;;
22260;SDS011;11299;43.202;27.920;2022-07-29T07:13:00;18.33;;;5.28;;
22260;SDS011;11299;43.202;27.920;2022-07-29T07:15:29;13.55;;;4.68;;
22260;SDS011;11299;43.202;27.920;2022-07-29T07:17:58;9.70;;;4.78;;
22260;SDS011;11299;43.202;27.920;2022-07-29T07:20:24;9.68;;;4.75;;
22260;SDS011;11299;43.202;27.920;2022-07-29T07:22:50;8.90;;;4.35;;
22260;SDS011;11299;43.202;27.920;2022-07-29T07:25:16;12.20;;;4.45;;
22260;SDS011;11299;43.202;27.920;2022-07-29T07:27:43;9.05;;;3.65;;
22260;SDS011;11299;43.202;27.920;2022-07-29T07:30:09;7.72;;;4.25;;
22260;SDS011;11299;43.202;27.920;2022-07-29T07:32:36;11.00;;;3.83;;
22260;SDS011;11299;43.202;27.920;2022-07-29T07:35:03;14.88;;;4.53;;
22260;SDS011;11299;43.202;27.920;2022-07-29T07:37:30;9.18;;;3.55;;
22260;SDS011;11299;43.202;27.920;2022-07-29T07:39:58;5.20;;;3.30;;
22260;SDS011;11299;43.202;27.920;2022-07-29T07:42:23;6.82;;;3.47;;
22260;SDS011;11299;43.202;27.920;2022-07-29T07:44:49;8.70;;;3.47;;
22260;SDS011;11299;43.202;27.920;2022-07-29T07:47:15;5.80;;;3.40;;
22260;SDS011;11299;43.202;27.920;2022-07-29T07:49:47;6.53;;;3.67;;
22260;SDS011;11299;43.202;27.920;2022-07-29T07:52:15;9.82;;;3.97;;
22260;SDS011;11299;43.202;27.920;2022-07-29T07:54:42;9.35;;;3.10;;
22260;SDS011;11299;43.202;27.920;2022-07-29T07:57:09;6.47;;;3.15;;
22260;SDS011;11299;43.202;27.920;2022-07-29T07:59:35;9.10;;;3.83;;
22260;SDS011;11299;43.202;27.920;2022-07-29T08:02:00;8.25;;;3.28;;
22260;SDS011;11299;43.202;27.920;2022-07-29T08:04:26;8.63;;;3.80;;
22260;SDS011;11299;43.202;27.920;2022-07-29T08:06:52;11.43;;;3.10;;
22260;SDS011;11299;43.202;27.920;2022-07-29T08:09:22;5.72;;;2.92;;
22260;SDS011;11299;43.202;27.920;2022-07-29T08:11:50;8.20;;;3.58;;
22260;SDS011;11299;43.202;27.920;2022-07-29T08:14:16;5.15;;;3.05;;
22260;SDS011;11299;43.202;27.920;2022-07-29T08:16:41;7.15;;;3.00;;
22260;SDS011;11299;43.202;27.920;2022-07-29T08:19:08;5.70;;;2.83;;
22260;SDS011;11299;43.202;27.920;2022-07-29T08:21:34;6.50;;;3.10;;
22260;SDS011;11299;43.202;27.920;2022-07-29T08:24:00;5.15;;;2.90;;
22260;SDS011;11299;43.202;27.920;2022-07-29T08:26:44;7.95;;;3.75;;
22260;SDS011;11299;43.202;27.920;2022-07-29T08:29:10;6.60;;;2.90;;
22260;SDS011;11299;43.202;27.920;2022-07-29T08:31:36;11.50;;;3.40;;
22260;SDS011;11299;43.202;27.920;2022-07-29T08:34:03;13.18;;;3.75;;
22260;SDS011;11299;43.202;27.920;2022-07-29T08:36:29;8.90;;;3.47;;
22260;SDS011;11299;43.202;27.920;2022-07-29T08:38:56;5.82;;;3.60;;
22260;SDS011;11299;43.202;27.920;2022-07-29T08:41:22;7.22;;;3.08;;
22260;SDS011;11299;43.202;27.920;2022-07-29T08:43:49;8.82;;;3.42;;
22260;SDS011;11299;43.202;27.920;2022-07-29T08:46:16;5.07;;;2.80;;
22260;SDS011;11299;43.202;27.920;2022-07-29T08:48:42;9.35;;;3.03;;
22260;SDS011;11299;43.202;27.920;2022-07-29T08:51:08;9.13;;;3.28;;
22260;SDS011;11299;43.202;27.920;2022-07-29T08:53:39;4.10;;;2.80;;
22260;SDS011;11299;43.202;27.920;2022-07-29T08:56:13;4.28;;;2.92;;
22260;SDS011;11299;43.202;27.920;2022-07-29T08:58:41;8.32;;;3.30;;
22260;SDS011;11299;43.202;27.920;2022-07-29T09:01:07;4.50;;;2.83;;
22260;SDS011;11299;43.202;27.920;2022-07-29T09:03:36;6.50;;;3.45;;
22260;SDS011;11299;43.202;27.920;2022-07-29T09:06:04;9.00;;;3.95;;
22260;SDS011;11299;43.202;27.920;2022-07-29T09:08:30;6.03;;;3.95;;
22260;SDS011;11299;43.202;27.920;2022-07-29T09:10:57;4.43;;;3.30;;
22260;SDS011;11299;43.202;27.920;2022-07-29T09:13:25;5.68;;;3.60;;
22260;SDS011;11299;43.202;27.920;2022-07-29T09:15:50;9.10;;;3.25;;
22260;SDS011;11299;43.202;27.920;2022-07-29T09:21:07;9.15;;;3.63;;
22260;SDS011;11299;43.202;27.920;2022-07-29T09:24:06;8.32;;;4.30;;
22260;SDS011;11299;43.202;27.920;2022-07-29T09:26:33;7.60;;;3.67;;
22260;SDS011;11299;43.202;27.920;2022-07-29T09:29:21;8.18;;;4.28;;
22260;SDS011;11299;43.202;27.920;2022-07-29T09:31:52;11.10;;;6.18;;
22260;SDS011;11299;43.202;27.920;2022-07-29T09:34:23;8.75;;;3.97;;
22260;SDS011;11299;43.202;27.920;2022-07-29T09:36:53;7.70;;;5.15;;
22260;SDS011;11299;43.202;27.920;2022-07-29T09:39:33;10.05;;;4.72;;
22260;SDS011;11299;43.202;27.920;2022-07-29T09:42:05;9.65;;;3.42;;
22260;SDS011;11299;43.202;27.920;2022-07-29T09:47:40;6.35;;;3.63;;
22260;SDS011;11299;43.202;27.920;2022-07-29T09:50:10;6.97;;;4.00;;
22260;SDS011;11299;43.202;27.920;2022-07-29T09:52:46;6.65;;;4.80;;
22260;SDS011;11299;43.202;27.920;2022-07-29T09:55:14;5.88;;;3.42;;
22260;SDS011;11299;43.202;27.920;2022-07-29T09:57:40;12.13;;;4.25;;
22260;SDS011;11299;43.202;27.920;2022-07-29T10:00:09;8.45;;;4.28;;
22260;SDS011;11299;43.202;27.920;2022-07-29T10:02:40;6.97;;;3.80;;
22260;SDS011;11299;43.202;27.920;2022-07-29T10:05:23;9.40;;;4.60;;
22260;SDS011;11299;43.202;27.920;2022-07-29T10:07:52;6.03;;;3.63;;
22260;SDS011;11299;43.202;27.920;2022-07-29T10:10:26;5.30;;;3.65;;
22260;SDS011;11299;43.202;27.920;2022-07-29T10:12:55;4.63;;;3.03;;
22260;SDS011;11299;43.202;27.920;2022-07-29T10:15:29;7.95;;;3.67;;
22260;SDS011;11299;43.202;27.920;2022-07-29T10:18:16;4.93;;;3.38;;
22260;SDS011;11299;43.202;27.920;2022-07-29T10:20:45;6.50;;;3.50;;
22260;SDS011;11299;43.202;27.920;2022-07-29T10:23:11;4.22;;;3.60;;
22260;SDS011;11299;43.202;27.920;2022-07-29T10:25:37;7.53;;;3.75;;
22260;SDS011;11299;43.202;27.920;2022-07-29T10:28:04;40.05;;;32.25;;
22260;SDS011;11299;43.202;27.920;2022-07-29T10:30:30;5.97;;;3.33;;
22260;SDS011;11299;43.202;27.920;2022-07-29T10:38:27;7.75;;;3.40;;
22260;SDS011;11299;43.202;27.920;2022-07-29T10:41:33;5.63;;;2.72;;
22260;SDS011;11299;43.202;27.920;2022-07-29T10:44:22;8.30;;;3.30;;
22260;SDS011;11299;43.202;27.920;2022-07-29T10:46:54;6.45;;;2.60;;
22260;SDS011;11299;43.202;27.920;2022-07-29T10:49:26;8.43;;;2.92;;
22260;SDS011;11299;43.202;27.920;2022-07-29T10:54:38;5.28;;;3.38;;
22260;SDS011;11299;43.202;27.920;2022-07-29T10:57:19;6.80;;;3.05;;
22260;SDS011;11299;43.202;27.920;2022-07-29T11:05:09;12.20;;;3.65;;
22260;SDS011;11299;43.202;27.920;2022-07-29T11:07:38;7.38;;;2.92;;
22260;SDS011;11299;43.202;27.920;2022-07-29T11:10:22;16.38;;;3.60;;
22260;SDS011;11299;43.202;27.920;2022-07-29T11:12:48;10.00;;;2.88;;
22260;SDS011;11299;43.202;27.920;2022-07-29T11:15:15;6.97;;;2.80;;
22260;SDS011;11299;43.202;27.920;2022-07-29T11:20:36;9.30;;;3.05;;
22260;SDS011;11299;43.202;27.920;2022-07-29T11:23:20;3.15;;;2.83;;
22260;SDS011;11299;43.202;27.920;2022-07-29T11:25:46;7.25;;;2.90;;
22260;SDS011;11299;43.202;27.920;2022-07-29T11:31:19;22.15;;;11.48;;
22260;SDS011;11299;43.202;27.920;2022-07-29T11:44:54;7.47;;;2.78;;
22260;SDS011;11299;43.202;27.920;2022-07-29T11:47:33;5.55;;;2.67;;
22260;SDS011;11299;43.202;27.920;2022-07-29T11:50:11;6.47;;;3.00;;
22260;SDS011;11299;43.202;27.920;2022-07-29T11:52:40;6.97;;;2.67;;
22260;SDS011;11299;43.202;27.920;2022-07-29T11:55:18;6.68;;;3.10;;
22260;SDS011;11299;43.202;27.920;2022-07-29T11:57:55;6.95;;;3.50;;
22260;SDS011;11299;43.202;27.920;2022-07-29T12:00:30;8.55;;;4.00;;
22260;SDS011;11299;43.202;27.920;2022-07-29T12:03:01;9.30;;;4.35;;
22260;SDS011;11299;43.202;27.920;2022-07-29T12:08:22;5.65;;;3.13;;
22260;SDS011;11299;43.202;27.920;2022-07-29T12:10:51;8.30;;;3.40;;
22260;SDS011;11299;43.202;27.920;2022-07-29T12:13:19;9.60;;;3.00;;
22260;SDS011;11299;43.202;27.920;2022-07-29T12:15:56;7.38;;;3.17;;
22260;SDS011;11299;43.202;27.920;2022-07-29T12:18:35;10.55;;;3.20;;
22260;SDS011;11299;43.202;27.920;2022-07-29T12:21:02;11.00;;;3.20;;
22260;SDS011;11299;43.202;27.920;2022-07-29T12:23:32;7.40;;;3.70;;
22260;SDS011;11299;43.202;27.920;2022-07-29T12:25:58;9.23;;;3.45;;
22260;SDS011;11299;43.202;27.920;2022-07-29T12:28:24;5.32;;;3.63;;
22260;SDS011;11299;43.202;27.920;2022-07-29T12:30:50;7.30;;;3.38;;
22260;SDS011;11299;43.202;27.920;2022-07-29T12:33:17;14.18;;;4.28;;
22260;SDS011;11299;43.202;27.920;2022-07-29T12:35:46;10.65;;;3.70;;
22260;SDS011;11299;43.202;27.920;2022-07-29T12:38:14;10.93;;;4.53;;
22260;SDS011;11299;43.202;27.920;2022-07-29T12:40:40;6.50;;;3.40;;
22260;SDS011;11299;43.202;27.920;2022-07-29T12:45:32;6.10;;;3.53;;
22260;SDS011;11299;43.202;27.920;2022-07-29T12:47:59;10.23;;;4.35;;
22260;SDS011;11299;43.202;27.920;2022-07-29T12:50:25;5.68;;;3.63;;
22260;SDS011;11299;43.202;27.920;2022-07-29T12:52:51;9.23;;;3.83;;
22260;SDS011;11299;43.202;27.920;2022-07-29T12:58:06;7.93;;;3.67;;
22260;SDS011;11299;43.202;27.920;2022-07-29T13:00:34;6.63;;;3.53;;
22260;SDS011;11299;43.202;27.920;2022-07-29T13:03:08;7.20;;;3.47;;
22260;SDS011;11299;43.202;27.920;2022-07-29T13:08:14;50.80;;;33.90;;
22260;SDS011;11299;43.202;27.920;2022-07-29T13:10:42;10.60;;;4.63;;
22260;SDS011;11299;43.202;27.920;2022-07-29T13:13:12;8.45;;;3.45;;
22260;SDS011;11299;43.202;27.920;2022-07-29T13:15:40;11.43;;;3.50;;
22260;SDS011;11299;43.202;27.920;2022-07-29T13:18:28;4.32;;;3.20;;
22260;SDS011;11299;43.202;27.920;2022-07-29T13:21:20;7.35;;;3.50;;
22260;SDS011;11299;43.202;27.920;2022-07-29T13:23:45;8.23;;;3.42;;
22260;SDS011;11299;43.202;27.920;2022-07-29T13:26:11;4.35;;;3.20;;
22260;SDS011;11299;43.202;27.920;2022-07-29T13:28:38;8.32;;;3.28;;
22260;SDS011;11299;43.202;27.920;2022-07-29T13:31:05;4.13;;;3.00;;
22260;SDS011;11299;43.202;27.920;2022-07-29T13:33:31;9.20;;;3.22;;
22260;SDS011;11299;43.202;27.920;2022-07-29T13:35:57;9.68;;;3.60;;
22260;SDS011;11299;43.202;27.920;2022-07-29T13:38:25;7.18;;;4.13;;
22260;SDS011;11299;43.202;27.920;2022-07-29T13:40:53;8.52;;;5.45;;
22260;SDS011;11299;43.202;27.920;2022-07-29T13:43:22;9.75;;;4.85;;
22260;SDS011;11299;43.202;27.920;2022-07-29T13:45:47;7.03;;;3.80;;
22260;SDS011;11299;43.202;27.920;2022-07-29T13:48:13;6.40;;;3.67;;
22260;SDS011;11299;43.202;27.920;2022-07-29T13:50:38;10.55;;;4.40;;
22260;SDS011;11299;43.202;27.920;2022-07-29T13:53:04;7.32;;;4.55;;
22260;SDS011;11299;43.202;27.920;2022-07-29T13:55:29;11.07;;;3.53;;
22260;SDS011;11299;43.202;27.920;2022-07-29T13:57:55;8.27;;;3.60;;
22260;SDS011;11299;43.202;27.920;2022-07-29T14:00:21;8.07;;;3.70;;
22260;SDS011;11299;43.202;27.920;2022-07-29T14:02:50;8.40;;;3.90;;
22260;SDS011;11299;43.202;27.920;2022-07-29T14:05:16;6.45;;;3.55;;
22260;SDS011;11299;43.202;27.920;2022-07-29T14:07:53;11.38;;;3.70;;
22260;SDS011;11299;43.202;27.920;2022-07-29T14:10:19;5.53;;;3.80;;
22260;SDS011;11299;43.202;27.920;2022-07-29T14:12:46;8.98;;;4.85;;
22260;SDS011;11299;43.202;27.920;2022-07-29T14:15:11;8.82;;;6.90;;
22260;SDS011;11299;43.202;27.920;2022-07-29T14:17:47;11.85;;;5.38;;
22260;SDS011;11299;43.202;27.920;2022-07-29T14:20:15;8.90;;;4.85;;
22260;SDS011;11299;43.202;27.920;2022-07-29T14:22:41;12.05;;;8.70;;
22260;SDS011;11299;43.202;27.920;2022-07-29T14:25:08;11.80;;;7.18;;
22260;SDS011;11299;43.202;27.920;2022-07-29T14:27:36;9.80;;;4.78;;
22260;SDS011;11299;43.202;27.920;2022-07-29T14:30:02;18.42;;;10.80;;
22260;SDS011;11299;43.202;27.920;2022-07-29T14:32:28;11.15;;;6.60;;
22260;SDS011;11299;43.202;27.920;2022-07-29T14:34:55;15.50;;;8.93;;
22260;SDS011;11299;43.202;27.920;2022-07-29T14:37:25;22.83;;;12.82;;
22260;SDS011;11299;43.202;27.920;2022-07-29T14:39:54;12.98;;;5.47;;
22260;SDS011;11299;43.202;27.920;2022-07-29T14:42:26;10.43;;;6.25;;
22260;SDS011;11299;43.202;27.920;2022-07-29T14:44:59;12.40;;;6.72;;
22260;SDS011;11299;43.202;27.920;2022-07-29T14:47:26;5.20;;;4.68;;
22260;SDS011;11299;43.202;27.920;2022-07-29T14:49:54;11.93;;;5.50;;
22260;SDS011;11299;43.202;27.920;2022-07-29T14:52:23;15.57;;;12.07;;
22260;SDS011;11299;43.202;27.920;2022-07-29T14:54:49;10.10;;;6.22;;
22260;SDS011;11299;43.202;27.920;2022-07-29T14:57:15;7.90;;;6.07;;
22260;SDS011;11299;43.202;27.920;2022-07-29T14:59:41;12.48;;;8.57;;
22260;SDS011;11299;43.202;27.920;2022-07-29T15:02:09;9.07;;;5.63;;
22260;SDS011;11299;43.202;27.920;2022-07-29T15:04:42;7.88;;;4.90;;
22260;SDS011;11299;43.202;27.920;2022-07-29T15:07:12;14.30;;;4.00;;
22260;SDS011;11299;43.202;27.920;2022-07-29T15:09:37;8.57;;;4.38;;
22260;SDS011;11299;43.202;27.920;2022-07-29T15:12:03;9.00;;;4.00;;
22260;SDS011;11299;43.202;27.920;2022-07-29T15:14:33;7.03;;;4.63;;
22260;SDS011;11299;43.202;27.920;2022-07-29T15:17:01;6.05;;;4.50;;
22260;SDS011;11299;43.202;27.920;2022-07-29T15:19:30;9.32;;;4.38;;
22260;SDS011;11299;43.202;27.920;2022-07-29T15:21:58;8.30;;;3.88;;
22260;SDS011;11299;43.202;27.920;2022-07-29T15:24:27;8.70;;;4.10;;
22260;SDS011;11299;43.202;27.920;2022-07-29T15:26:54;8.82;;;4.80;;
22260;SDS011;11299;43.202;27.920;2022-07-29T15:29:26;7.10;;;4.32;;
22260;SDS011;11299;43.202;27.920;2022-07-29T15:31:57;6.53;;;4.27;;
22260;SDS011;11299;43.202;27.920;2022-07-29T15:34:25;10.30;;;4.53;;
22260;SDS011;11299;43.202;27.920;2022-07-29T15:36:51;9.52;;;4.35;;